<?xml version="1.0" encoding="UTF-8" standalone="no" ?>
<gpx xmlns="http://www.topografix.com/GPX/1/1" xmlns:xsi="http://www.w3.org/2001/XMLSchema-instance" xsi:schemaLocation="http://www.topografix.com/GPX/1/1 http://www.topografix.com/GPX/1/1/gpx.xsd" version="1.1" creator="VisuGPX - https://www.visugpx.com">
  <metadata>
    <name>Fontainebleau 31 juillet</name>
    <desc><![CDATA[Fontainebleau 31 juillet]]></desc>
  </metadata>
  <trk>
    <name><![CDATA[31-07-2011 Pignon Poteau]]></name>
    <trkseg>
      <trkpt lat="48.37343" lon="2.50933">
        <ele>67.248062</ele>
        <time>2011-07-31T10:19:28Z</time>
      </trkpt>
      <trkpt lat="48.37347" lon="2.50953">
        <ele>67.061424</ele>
        <time>2011-07-31T10:20:10Z</time>
      </trkpt>
      <trkpt lat="48.37346" lon="2.50954">
        <ele>67.042839</ele>
        <time>2011-07-31T10:20:13Z</time>
      </trkpt>
      <trkpt lat="48.3734" lon="2.50977">
        <ele>67.108223</ele>
        <time>2011-07-31T10:20:25Z</time>
      </trkpt>
      <trkpt lat="48.37331" lon="2.50995">
        <ele>67.320808</ele>
        <time>2011-07-31T10:20:37Z</time>
      </trkpt>
      <trkpt lat="48.37323" lon="2.51014">
        <ele>67.629478</ele>
        <time>2011-07-31T10:20:49Z</time>
      </trkpt>
      <trkpt lat="48.37317" lon="2.51035">
        <ele>67.901672</ele>
        <time>2011-07-31T10:21:02Z</time>
      </trkpt>
      <trkpt lat="48.3731" lon="2.51061">
        <ele>68.05761</ele>
        <time>2011-07-31T10:21:19Z</time>
      </trkpt>
      <trkpt lat="48.37305" lon="2.51082">
        <ele>68.250504</ele>
        <time>2011-07-31T10:21:30Z</time>
      </trkpt>
      <trkpt lat="48.37304" lon="2.51103">
        <ele>68.889915</ele>
        <time>2011-07-31T10:21:39Z</time>
      </trkpt>
      <trkpt lat="48.37314" lon="2.51118">
        <ele>69.084122</ele>
        <time>2011-07-31T10:21:51Z</time>
      </trkpt>
      <trkpt lat="48.37328" lon="2.51116">
        <ele>68.914253</ele>
        <time>2011-07-31T10:22:22Z</time>
      </trkpt>
      <trkpt lat="48.37338" lon="2.51131">
        <ele>69.367493</ele>
        <time>2011-07-31T10:22:42Z</time>
      </trkpt>
      <trkpt lat="48.37352" lon="2.51146">
        <ele>69.668205</ele>
        <time>2011-07-31T10:22:59Z</time>
      </trkpt>
      <trkpt lat="48.37365" lon="2.51151">
        <ele>69.525002</ele>
        <time>2011-07-31T10:23:10Z</time>
      </trkpt>
      <trkpt lat="48.37379" lon="2.51157">
        <ele>69.400002</ele>
        <time>2011-07-31T10:23:22Z</time>
      </trkpt>
      <trkpt lat="48.37392" lon="2.51161">
        <ele>69.241249</ele>
        <time>2011-07-31T10:23:33Z</time>
      </trkpt>
      <trkpt lat="48.37407" lon="2.51166">
        <ele>69.096001</ele>
        <time>2011-07-31T10:23:46Z</time>
      </trkpt>
      <trkpt lat="48.37424" lon="2.51172">
        <ele>68.923691</ele>
        <time>2011-07-31T10:24:03Z</time>
      </trkpt>
      <trkpt lat="48.3744" lon="2.51181">
        <ele>68.777779</ele>
        <time>2011-07-31T10:24:20Z</time>
      </trkpt>
      <trkpt lat="48.37454" lon="2.51185">
        <ele>68.511505</ele>
        <time>2011-07-31T10:24:32Z</time>
      </trkpt>
      <trkpt lat="48.37466" lon="2.51196">
        <ele>68.395676</ele>
        <time>2011-07-31T10:24:49Z</time>
      </trkpt>
      <trkpt lat="48.37479" lon="2.51203">
        <ele>68.075066</ele>
        <time>2011-07-31T10:25:02Z</time>
      </trkpt>
      <trkpt lat="48.37499" lon="2.51217">
        <ele>67.671249</ele>
        <time>2011-07-31T10:25:21Z</time>
      </trkpt>
      <trkpt lat="48.37512" lon="2.51224">
        <ele>67.47625</ele>
        <time>2011-07-31T10:25:32Z</time>
      </trkpt>
      <trkpt lat="48.37524" lon="2.51235">
        <ele>67.416435</ele>
        <time>2011-07-31T10:25:44Z</time>
      </trkpt>
      <trkpt lat="48.37536" lon="2.51248">
        <ele>67.307076</ele>
        <time>2011-07-31T10:25:56Z</time>
      </trkpt>
      <trkpt lat="48.37548" lon="2.51259">
        <ele>67.186249</ele>
        <time>2011-07-31T10:26:06Z</time>
      </trkpt>
      <trkpt lat="48.37557" lon="2.51275">
        <ele>67.230003</ele>
        <time>2011-07-31T10:26:23Z</time>
      </trkpt>
      <trkpt lat="48.37566" lon="2.51292">
        <ele>67.27375</ele>
        <time>2011-07-31T10:26:34Z</time>
      </trkpt>
      <trkpt lat="48.37578" lon="2.51307">
        <ele>67.23719</ele>
        <time>2011-07-31T10:26:46Z</time>
      </trkpt>
      <trkpt lat="48.37592" lon="2.51311">
        <ele>67.222504</ele>
        <time>2011-07-31T10:26:59Z</time>
      </trkpt>
      <trkpt lat="48.37601" lon="2.51328">
        <ele>67.466248</ele>
        <time>2011-07-31T10:27:16Z</time>
      </trkpt>
      <trkpt lat="48.37611" lon="2.51343">
        <ele>67.6875</ele>
        <time>2011-07-31T10:27:29Z</time>
      </trkpt>
      <trkpt lat="48.37622" lon="2.51359">
        <ele>67.932503</ele>
        <time>2011-07-31T10:27:42Z</time>
      </trkpt>
      <trkpt lat="48.37631" lon="2.51377">
        <ele>68</ele>
        <time>2011-07-31T10:27:55Z</time>
      </trkpt>
      <trkpt lat="48.37641" lon="2.51395">
        <ele>68</ele>
        <time>2011-07-31T10:28:07Z</time>
      </trkpt>
      <trkpt lat="48.37652" lon="2.51412">
        <ele>68</ele>
        <time>2011-07-31T10:28:19Z</time>
      </trkpt>
      <trkpt lat="48.37661" lon="2.51434">
        <ele>68</ele>
        <time>2011-07-31T10:28:36Z</time>
      </trkpt>
      <trkpt lat="48.3767" lon="2.51452">
        <ele>68</ele>
        <time>2011-07-31T10:28:48Z</time>
      </trkpt>
      <trkpt lat="48.3768" lon="2.51467">
        <ele>67.987701</ele>
        <time>2011-07-31T10:28:59Z</time>
      </trkpt>
      <trkpt lat="48.37689" lon="2.51485">
        <ele>67.76004</ele>
        <time>2011-07-31T10:29:10Z</time>
      </trkpt>
      <trkpt lat="48.377" lon="2.51502">
        <ele>67.360001</ele>
        <time>2011-07-31T10:29:20Z</time>
      </trkpt>
      <trkpt lat="48.37709" lon="2.51518">
        <ele>67.160004</ele>
        <time>2011-07-31T10:29:31Z</time>
      </trkpt>
      <trkpt lat="48.37719" lon="2.51532">
        <ele>66.925003</ele>
        <time>2011-07-31T10:29:42Z</time>
      </trkpt>
      <trkpt lat="48.37733" lon="2.51554">
        <ele>66.625</ele>
        <time>2011-07-31T10:29:59Z</time>
      </trkpt>
      <trkpt lat="48.37742" lon="2.51571">
        <ele>66.570503</ele>
        <time>2011-07-31T10:30:09Z</time>
      </trkpt>
      <trkpt lat="48.37751" lon="2.51589">
        <ele>66.950905</ele>
        <time>2011-07-31T10:30:21Z</time>
      </trkpt>
      <trkpt lat="48.3776" lon="2.51605">
        <ele>67.181778</ele>
        <time>2011-07-31T10:30:30Z</time>
      </trkpt>
      <trkpt lat="48.37769" lon="2.51623">
        <ele>67.528442</ele>
        <time>2011-07-31T10:30:43Z</time>
      </trkpt>
      <trkpt lat="48.37779" lon="2.51637">
        <ele>67.669022</ele>
        <time>2011-07-31T10:30:52Z</time>
      </trkpt>
      <trkpt lat="48.3779" lon="2.51653">
        <ele>67.833801</ele>
        <time>2011-07-31T10:31:03Z</time>
      </trkpt>
      <trkpt lat="48.378" lon="2.51668">
        <ele>67.743103</ele>
        <time>2011-07-31T10:31:14Z</time>
      </trkpt>
      <trkpt lat="48.37812" lon="2.51683">
        <ele>67.578751</ele>
        <time>2011-07-31T10:31:25Z</time>
      </trkpt>
      <trkpt lat="48.37821" lon="2.517">
        <ele>67.622498</ele>
        <time>2011-07-31T10:31:38Z</time>
      </trkpt>
      <trkpt lat="48.37832" lon="2.51713">
        <ele>67.728203</ele>
        <time>2011-07-31T10:31:48Z</time>
      </trkpt>
      <trkpt lat="48.37845" lon="2.51734">
        <ele>67.712097</ele>
        <time>2011-07-31T10:32:05Z</time>
      </trkpt>
      <trkpt lat="48.37857" lon="2.51748">
        <ele>67.527496</ele>
        <time>2011-07-31T10:32:15Z</time>
      </trkpt>
      <trkpt lat="48.37869" lon="2.51763">
        <ele>67.483749</ele>
        <time>2011-07-31T10:32:25Z</time>
      </trkpt>
      <trkpt lat="48.37878" lon="2.51779">
        <ele>67.796875</ele>
        <time>2011-07-31T10:32:37Z</time>
      </trkpt>
      <trkpt lat="48.37889" lon="2.51793">
        <ele>67.749374</ele>
        <time>2011-07-31T10:32:47Z</time>
      </trkpt>
      <trkpt lat="48.37898" lon="2.51809">
        <ele>67.444008</ele>
        <time>2011-07-31T10:32:59Z</time>
      </trkpt>
      <trkpt lat="48.37907" lon="2.51826">
        <ele>67.109283</ele>
        <time>2011-07-31T10:33:10Z</time>
      </trkpt>
      <trkpt lat="48.37917" lon="2.51841">
        <ele>66.555725</ele>
        <time>2011-07-31T10:33:21Z</time>
      </trkpt>
      <trkpt lat="48.37928" lon="2.51856">
        <ele>66.038002</ele>
        <time>2011-07-31T10:33:33Z</time>
      </trkpt>
      <trkpt lat="48.37938" lon="2.51874">
        <ele>65.651894</ele>
        <time>2011-07-31T10:33:46Z</time>
      </trkpt>
      <trkpt lat="48.37949" lon="2.51892">
        <ele>65.653061</ele>
        <time>2011-07-31T10:33:57Z</time>
      </trkpt>
      <trkpt lat="48.37962" lon="2.5191">
        <ele>65.582504</ele>
        <time>2011-07-31T10:34:10Z</time>
      </trkpt>
      <trkpt lat="48.37976" lon="2.51926">
        <ele>65.526253</ele>
        <time>2011-07-31T10:34:21Z</time>
      </trkpt>
      <trkpt lat="48.37986" lon="2.51941">
        <ele>65.550278</ele>
        <time>2011-07-31T10:34:32Z</time>
      </trkpt>
      <trkpt lat="48.37998" lon="2.51958">
        <ele>65.846664</ele>
        <time>2011-07-31T10:34:45Z</time>
      </trkpt>
      <trkpt lat="48.3801" lon="2.51973">
        <ele>66.001648</ele>
        <time>2011-07-31T10:34:57Z</time>
      </trkpt>
      <trkpt lat="48.38021" lon="2.51986">
        <ele>66.041771</ele>
        <time>2011-07-31T10:35:08Z</time>
      </trkpt>
      <trkpt lat="48.38028" lon="2.52004">
        <ele>66.016449</ele>
        <time>2011-07-31T10:35:19Z</time>
      </trkpt>
      <trkpt lat="48.38039" lon="2.52021">
        <ele>65.860817</ele>
        <time>2011-07-31T10:35:31Z</time>
      </trkpt>
      <trkpt lat="48.38051" lon="2.52037">
        <ele>65.554764</ele>
        <time>2011-07-31T10:35:44Z</time>
      </trkpt>
      <trkpt lat="48.38064" lon="2.52058">
        <ele>65.235001</ele>
        <time>2011-07-31T10:36:01Z</time>
      </trkpt>
      <trkpt lat="48.38075" lon="2.52072">
        <ele>65</ele>
        <time>2011-07-31T10:36:10Z</time>
      </trkpt>
      <trkpt lat="48.38084" lon="2.5209">
        <ele>65</ele>
        <time>2011-07-31T10:36:23Z</time>
      </trkpt>
      <trkpt lat="48.38096" lon="2.52103">
        <ele>65</ele>
        <time>2011-07-31T10:36:34Z</time>
      </trkpt>
      <trkpt lat="48.38106" lon="2.5212">
        <ele>65</ele>
        <time>2011-07-31T10:36:47Z</time>
      </trkpt>
      <trkpt lat="48.38118" lon="2.52136">
        <ele>65</ele>
        <time>2011-07-31T10:36:58Z</time>
      </trkpt>
      <trkpt lat="48.38129" lon="2.5215">
        <ele>65.205002</ele>
        <time>2011-07-31T10:37:08Z</time>
      </trkpt>
      <trkpt lat="48.38139" lon="2.52163">
        <ele>65.434998</ele>
        <time>2011-07-31T10:37:18Z</time>
      </trkpt>
      <trkpt lat="48.3815" lon="2.52183">
        <ele>65.705887</ele>
        <time>2011-07-31T10:37:35Z</time>
      </trkpt>
      <trkpt lat="48.3816" lon="2.52196">
        <ele>65.934334</ele>
        <time>2011-07-31T10:39:22Z</time>
      </trkpt>
      <trkpt lat="48.38166" lon="2.52216">
        <ele>66.112198</ele>
        <time>2011-07-31T10:39:35Z</time>
      </trkpt>
      <trkpt lat="48.38177" lon="2.52229">
        <ele>66.662064</ele>
        <time>2011-07-31T10:39:45Z</time>
      </trkpt>
      <trkpt lat="48.38187" lon="2.52246">
        <ele>67.019203</ele>
        <time>2011-07-31T10:39:56Z</time>
      </trkpt>
      <trkpt lat="48.38198" lon="2.52261">
        <ele>67.353996</ele>
        <time>2011-07-31T10:40:06Z</time>
      </trkpt>
      <trkpt lat="48.38205" lon="2.52279">
        <ele>67.386421</ele>
        <time>2011-07-31T10:40:18Z</time>
      </trkpt>
      <trkpt lat="48.38214" lon="2.52301">
        <ele>67.435059</ele>
        <time>2011-07-31T10:40:35Z</time>
      </trkpt>
      <trkpt lat="48.38225" lon="2.52315">
        <ele>67.647736</ele>
        <time>2011-07-31T10:40:44Z</time>
      </trkpt>
      <trkpt lat="48.38238" lon="2.5233">
        <ele>67.925575</ele>
        <time>2011-07-31T10:40:57Z</time>
      </trkpt>
      <trkpt lat="48.38247" lon="2.52346">
        <ele>67.800636</ele>
        <time>2011-07-31T10:41:14Z</time>
      </trkpt>
      <trkpt lat="48.38259" lon="2.52361">
        <ele>67.618073</ele>
        <time>2011-07-31T10:41:24Z</time>
      </trkpt>
      <trkpt lat="48.38246" lon="2.52369">
        <ele>67.228203</ele>
        <time>2011-07-31T10:41:42Z</time>
      </trkpt>
      <trkpt lat="48.38231" lon="2.52363">
        <ele>67.218399</ele>
        <time>2011-07-31T10:41:59Z</time>
      </trkpt>
      <trkpt lat="48.38217" lon="2.5236">
        <ele>67.097649</ele>
        <time>2011-07-31T10:42:09Z</time>
      </trkpt>
      <trkpt lat="48.38204" lon="2.52358">
        <ele>67.084747</ele>
        <time>2011-07-31T10:42:19Z</time>
      </trkpt>
      <trkpt lat="48.3819" lon="2.5236">
        <ele>67.306602</ele>
        <time>2011-07-31T10:42:30Z</time>
      </trkpt>
      <trkpt lat="48.38177" lon="2.52358">
        <ele>67.509399</ele>
        <time>2011-07-31T10:42:40Z</time>
      </trkpt>
      <trkpt lat="48.38163" lon="2.52357">
        <ele>67.686249</ele>
        <time>2011-07-31T10:42:51Z</time>
      </trkpt>
      <trkpt lat="48.3815" lon="2.52361">
        <ele>67.753754</ele>
        <time>2011-07-31T10:43:03Z</time>
      </trkpt>
      <trkpt lat="48.38136" lon="2.52366">
        <ele>67.821251</ele>
        <time>2011-07-31T10:43:12Z</time>
      </trkpt>
      <trkpt lat="48.38123" lon="2.52364">
        <ele>67.800003</ele>
        <time>2011-07-31T10:43:22Z</time>
      </trkpt>
      <trkpt lat="48.38109" lon="2.52366">
        <ele>67.822502</ele>
        <time>2011-07-31T10:43:32Z</time>
      </trkpt>
      <trkpt lat="48.38096" lon="2.52375">
        <ele>67.956253</ele>
        <time>2011-07-31T10:43:44Z</time>
      </trkpt>
      <trkpt lat="48.38088" lon="2.52393">
        <ele>68.378136</ele>
        <time>2011-07-31T10:44:08Z</time>
      </trkpt>
      <trkpt lat="48.38097" lon="2.52409">
        <ele>68.696571</ele>
        <time>2011-07-31T10:44:28Z</time>
      </trkpt>
      <trkpt lat="48.38106" lon="2.52426">
        <ele>68.919128</ele>
        <time>2011-07-31T10:44:48Z</time>
      </trkpt>
      <trkpt lat="48.38109" lon="2.52447">
        <ele>69.229897</ele>
        <time>2011-07-31T10:45:13Z</time>
      </trkpt>
      <trkpt lat="48.38118" lon="2.52429">
        <ele>68.771378</ele>
        <time>2011-07-31T10:45:45Z</time>
      </trkpt>
      <trkpt lat="48.38126" lon="2.52409">
        <ele>68.398643</ele>
        <time>2011-07-31T10:46:16Z</time>
      </trkpt>
      <trkpt lat="48.38126" lon="2.5243">
        <ele>68.664764</ele>
        <time>2011-07-31T10:50:22Z</time>
      </trkpt>
      <trkpt lat="48.3812" lon="2.5245">
        <ele>68.985001</ele>
        <time>2011-07-31T10:50:39Z</time>
      </trkpt>
      <trkpt lat="48.38115" lon="2.52471">
        <ele>69.149391</ele>
        <time>2011-07-31T10:50:56Z</time>
      </trkpt>
      <trkpt lat="48.38105" lon="2.52456">
        <ele>69.419998</ele>
        <time>2011-07-31T10:51:13Z</time>
      </trkpt>
      <trkpt lat="48.38094" lon="2.52442">
        <ele>69.488914</ele>
        <time>2011-07-31T10:51:23Z</time>
      </trkpt>
      <trkpt lat="48.38082" lon="2.52432">
        <ele>69.460548</ele>
        <time>2011-07-31T10:51:34Z</time>
      </trkpt>
      <trkpt lat="48.38073" lon="2.52414">
        <ele>69.103226</ele>
        <time>2011-07-31T10:51:46Z</time>
      </trkpt>
      <trkpt lat="48.38063" lon="2.52399">
        <ele>68.962509</ele>
        <time>2011-07-31T10:51:59Z</time>
      </trkpt>
      <trkpt lat="48.38051" lon="2.52388">
        <ele>68.925842</ele>
        <time>2011-07-31T10:52:08Z</time>
      </trkpt>
      <trkpt lat="48.3804" lon="2.52403">
        <ele>69.808784</ele>
        <time>2011-07-31T10:52:33Z</time>
      </trkpt>
      <trkpt lat="48.38027" lon="2.52409">
        <ele>70.494667</ele>
        <time>2011-07-31T10:52:50Z</time>
      </trkpt>
      <trkpt lat="48.38012" lon="2.52421">
        <ele>71.593498</ele>
        <time>2011-07-31T10:53:07Z</time>
      </trkpt>
      <trkpt lat="48.38004" lon="2.52439">
        <ele>72.816711</ele>
        <time>2011-07-31T10:53:19Z</time>
      </trkpt>
      <trkpt lat="48.37994" lon="2.5246">
        <ele>75.085175</ele>
        <time>2011-07-31T10:53:36Z</time>
      </trkpt>
      <trkpt lat="48.37983" lon="2.52478">
        <ele>77.533897</ele>
        <time>2011-07-31T10:53:53Z</time>
      </trkpt>
      <trkpt lat="48.3797" lon="2.52489">
        <ele>79.429901</ele>
        <time>2011-07-31T10:54:10Z</time>
      </trkpt>
      <trkpt lat="48.37959" lon="2.52505">
        <ele>81.506279</ele>
        <time>2011-07-31T10:54:22Z</time>
      </trkpt>
      <trkpt lat="48.3795" lon="2.52528">
        <ele>82.913383</ele>
        <time>2011-07-31T10:54:39Z</time>
      </trkpt>
      <trkpt lat="48.37941" lon="2.52549">
        <ele>83.527153</ele>
        <time>2011-07-31T10:54:56Z</time>
      </trkpt>
      <trkpt lat="48.37929" lon="2.52561">
        <ele>83.367752</ele>
        <time>2011-07-31T10:55:06Z</time>
      </trkpt>
      <trkpt lat="48.37917" lon="2.52571">
        <ele>82.717781</ele>
        <time>2011-07-31T10:55:16Z</time>
      </trkpt>
      <trkpt lat="48.37907" lon="2.52585">
        <ele>81.862053</ele>
        <time>2011-07-31T10:55:36Z</time>
      </trkpt>
      <trkpt lat="48.37916" lon="2.52568">
        <ele>82.706001</ele>
        <time>2011-07-31T10:56:25Z</time>
      </trkpt>
      <trkpt lat="48.37928" lon="2.52556">
        <ele>83.329872</ele>
        <time>2011-07-31T10:56:38Z</time>
      </trkpt>
      <trkpt lat="48.37938" lon="2.52538">
        <ele>83.388748</ele>
        <time>2011-07-31T10:56:51Z</time>
      </trkpt>
      <trkpt lat="48.37944" lon="2.52516">
        <ele>82.851486</ele>
        <time>2011-07-31T10:57:08Z</time>
      </trkpt>
      <trkpt lat="48.37955" lon="2.52531">
        <ele>82.872169</ele>
        <time>2011-07-31T10:57:34Z</time>
      </trkpt>
      <trkpt lat="48.37967" lon="2.52549">
        <ele>83.313416</ele>
        <time>2011-07-31T10:57:51Z</time>
      </trkpt>
      <trkpt lat="48.37956" lon="2.52532">
        <ele>82.879326</ele>
        <time>2011-07-31T10:58:23Z</time>
      </trkpt>
      <trkpt lat="48.37943" lon="2.52529">
        <ele>83.156197</ele>
        <time>2011-07-31T10:58:49Z</time>
      </trkpt>
      <trkpt lat="48.37932" lon="2.52549">
        <ele>83.432343</ele>
        <time>2011-07-31T10:59:06Z</time>
      </trkpt>
      <trkpt lat="48.3792" lon="2.5257">
        <ele>82.898125</ele>
        <time>2011-07-31T10:59:23Z</time>
      </trkpt>
      <trkpt lat="48.3791" lon="2.52585">
        <ele>82.062172</ele>
        <time>2011-07-31T10:59:42Z</time>
      </trkpt>
      <trkpt lat="48.37896" lon="2.52592">
        <ele>81.143547</ele>
        <time>2011-07-31T10:59:52Z</time>
      </trkpt>
      <trkpt lat="48.37886" lon="2.52607">
        <ele>80.291916</ele>
        <time>2011-07-31T11:00:03Z</time>
      </trkpt>
      <trkpt lat="48.37878" lon="2.52631">
        <ele>79.411003</ele>
        <time>2011-07-31T11:00:20Z</time>
      </trkpt>
      <trkpt lat="48.37875" lon="2.52652">
        <ele>78.433624</ele>
        <time>2011-07-31T11:00:46Z</time>
      </trkpt>
      <trkpt lat="48.37886" lon="2.52666">
        <ele>78.270401</ele>
        <time>2011-07-31T11:01:19Z</time>
      </trkpt>
      <trkpt lat="48.37898" lon="2.52678">
        <ele>78.215279</ele>
        <time>2011-07-31T11:02:01Z</time>
      </trkpt>
      <trkpt lat="48.37901" lon="2.52699">
        <ele>76.449379</ele>
        <time>2011-07-31T11:02:28Z</time>
      </trkpt>
      <trkpt lat="48.37899" lon="2.5272">
        <ele>74.4608</ele>
        <time>2011-07-31T11:02:49Z</time>
      </trkpt>
      <trkpt lat="48.37898" lon="2.52741">
        <ele>73.269737</ele>
        <time>2011-07-31T11:03:06Z</time>
      </trkpt>
      <trkpt lat="48.37902" lon="2.5276">
        <ele>72.818398</ele>
        <time>2011-07-31T11:03:35Z</time>
      </trkpt>
      <trkpt lat="48.37917" lon="2.52775">
        <ele>73.478951</ele>
        <time>2011-07-31T11:03:52Z</time>
      </trkpt>
      <trkpt lat="48.37931" lon="2.52786">
        <ele>74.1315</ele>
        <time>2011-07-31T11:04:04Z</time>
      </trkpt>
      <trkpt lat="48.37947" lon="2.52798">
        <ele>75.641098</ele>
        <time>2011-07-31T11:04:21Z</time>
      </trkpt>
      <trkpt lat="48.37958" lon="2.52811">
        <ele>76.367249</ele>
        <time>2011-07-31T11:04:30Z</time>
      </trkpt>
      <trkpt lat="48.37968" lon="2.52828">
        <ele>76.439476</ele>
        <time>2011-07-31T11:04:47Z</time>
      </trkpt>
      <trkpt lat="48.37982" lon="2.52837">
        <ele>77.148148</ele>
        <time>2011-07-31T11:04:57Z</time>
      </trkpt>
      <trkpt lat="48.37976" lon="2.52856">
        <ele>74.93956</ele>
        <time>2011-07-31T11:05:14Z</time>
      </trkpt>
      <trkpt lat="48.37976" lon="2.52879">
        <ele>73.721375</ele>
        <time>2011-07-31T11:05:31Z</time>
      </trkpt>
      <trkpt lat="48.37973" lon="2.52903">
        <ele>72.267998</ele>
        <time>2011-07-31T11:05:48Z</time>
      </trkpt>
      <trkpt lat="48.37973" lon="2.52924">
        <ele>71.444946</ele>
        <time>2011-07-31T11:06:05Z</time>
      </trkpt>
      <trkpt lat="48.37982" lon="2.5294">
        <ele>71.589996</ele>
        <time>2011-07-31T11:06:41Z</time>
      </trkpt>
      <trkpt lat="48.37968" lon="2.52939">
        <ele>71.107971</ele>
        <time>2011-07-31T11:07:39Z</time>
      </trkpt>
      <trkpt lat="48.3798" lon="2.52928">
        <ele>71.697372</ele>
        <time>2011-07-31T11:12:01Z</time>
      </trkpt>
      <trkpt lat="48.37992" lon="2.52915">
        <ele>72.341827</ele>
        <time>2011-07-31T11:12:19Z</time>
      </trkpt>
      <trkpt lat="48.38004" lon="2.52904">
        <ele>73.312973</ele>
        <time>2011-07-31T11:12:32Z</time>
      </trkpt>
      <trkpt lat="48.38016" lon="2.52894">
        <ele>74.366936</ele>
        <time>2011-07-31T11:12:53Z</time>
      </trkpt>
      <trkpt lat="48.3803" lon="2.529">
        <ele>74.298805</ele>
        <time>2011-07-31T11:13:05Z</time>
      </trkpt>
      <trkpt lat="48.38043" lon="2.52907">
        <ele>73.877403</ele>
        <time>2011-07-31T11:13:18Z</time>
      </trkpt>
      <trkpt lat="48.38057" lon="2.52913">
        <ele>73.781898</ele>
        <time>2011-07-31T11:13:31Z</time>
      </trkpt>
      <trkpt lat="48.38076" lon="2.52922">
        <ele>74.054115</ele>
        <time>2011-07-31T11:13:48Z</time>
      </trkpt>
      <trkpt lat="48.38078" lon="2.52945">
        <ele>73.746529</ele>
        <time>2011-07-31T11:14:05Z</time>
      </trkpt>
      <trkpt lat="48.38078" lon="2.52966">
        <ele>73.412125</ele>
        <time>2011-07-31T11:14:17Z</time>
      </trkpt>
      <trkpt lat="48.38084" lon="2.52985">
        <ele>73.223854</ele>
        <time>2011-07-31T11:14:30Z</time>
      </trkpt>
      <trkpt lat="48.38091" lon="2.53003">
        <ele>73.020248</ele>
        <time>2011-07-31T11:14:39Z</time>
      </trkpt>
      <trkpt lat="48.38097" lon="2.53023">
        <ele>72.6754</ele>
        <time>2011-07-31T11:14:51Z</time>
      </trkpt>
      <trkpt lat="48.38108" lon="2.53036">
        <ele>72.42701</ele>
        <time>2011-07-31T11:15:01Z</time>
      </trkpt>
      <trkpt lat="48.3812" lon="2.53048">
        <ele>72.059731</ele>
        <time>2011-07-31T11:15:09Z</time>
      </trkpt>
      <trkpt lat="48.38133" lon="2.53056">
        <ele>71.252991</ele>
        <time>2011-07-31T11:15:18Z</time>
      </trkpt>
      <trkpt lat="48.38147" lon="2.53054">
        <ele>70.697578</ele>
        <time>2011-07-31T11:15:31Z</time>
      </trkpt>
      <trkpt lat="48.3816" lon="2.53056">
        <ele>70.082077</ele>
        <time>2011-07-31T11:15:40Z</time>
      </trkpt>
      <trkpt lat="48.38174" lon="2.53056">
        <ele>69.956253</ele>
        <time>2011-07-31T11:15:49Z</time>
      </trkpt>
      <trkpt lat="48.38189" lon="2.53048">
        <ele>70.164024</ele>
        <time>2011-07-31T11:16:06Z</time>
      </trkpt>
      <trkpt lat="48.38202" lon="2.53047">
        <ele>70.194359</ele>
        <time>2011-07-31T11:16:15Z</time>
      </trkpt>
      <trkpt lat="48.38216" lon="2.53051">
        <ele>69.875748</ele>
        <time>2011-07-31T11:16:24Z</time>
      </trkpt>
      <trkpt lat="48.38229" lon="2.53053">
        <ele>69.535736</ele>
        <time>2011-07-31T11:16:34Z</time>
      </trkpt>
      <trkpt lat="48.38243" lon="2.53057">
        <ele>69.167503</ele>
        <time>2011-07-31T11:16:43Z</time>
      </trkpt>
      <trkpt lat="48.38256" lon="2.53045">
        <ele>69.038109</ele>
        <time>2011-07-31T11:17:00Z</time>
      </trkpt>
      <trkpt lat="48.38267" lon="2.5303">
        <ele>68.930435</ele>
        <time>2011-07-31T11:17:13Z</time>
      </trkpt>
      <trkpt lat="48.38273" lon="2.53009">
        <ele>68.932251</ele>
        <time>2011-07-31T11:17:24Z</time>
      </trkpt>
      <trkpt lat="48.38282" lon="2.52991">
        <ele>68.69989</ele>
        <time>2011-07-31T11:17:33Z</time>
      </trkpt>
      <trkpt lat="48.38292" lon="2.52976">
        <ele>68.400002</ele>
        <time>2011-07-31T11:17:44Z</time>
      </trkpt>
      <trkpt lat="48.38298" lon="2.52954">
        <ele>68.473747</ele>
        <time>2011-07-31T11:18:01Z</time>
      </trkpt>
      <trkpt lat="48.38307" lon="2.52937">
        <ele>68.574997</ele>
        <time>2011-07-31T11:18:11Z</time>
      </trkpt>
      <trkpt lat="48.38313" lon="2.52918">
        <ele>68.665001</ele>
        <time>2011-07-31T11:18:19Z</time>
      </trkpt>
      <trkpt lat="48.38318" lon="2.52898">
        <ele>68.565002</ele>
        <time>2011-07-31T11:18:30Z</time>
      </trkpt>
      <trkpt lat="48.38321" lon="2.52877">
        <ele>68.5</ele>
        <time>2011-07-31T11:18:43Z</time>
      </trkpt>
      <trkpt lat="48.38327" lon="2.52858">
        <ele>68.364998</ele>
        <time>2011-07-31T11:18:54Z</time>
      </trkpt>
      <trkpt lat="48.38331" lon="2.52837">
        <ele>68.480003</ele>
        <time>2011-07-31T11:19:07Z</time>
      </trkpt>
      <trkpt lat="48.38328" lon="2.52816">
        <ele>68.854996</ele>
        <time>2011-07-31T11:19:17Z</time>
      </trkpt>
      <trkpt lat="48.38331" lon="2.52795">
        <ele>69.102501</ele>
        <time>2011-07-31T11:20:03Z</time>
      </trkpt>
      <trkpt lat="48.38333" lon="2.52772">
        <ele>69.361221</ele>
        <time>2011-07-31T11:20:16Z</time>
      </trkpt>
      <trkpt lat="48.38348" lon="2.52771">
        <ele>69.360817</ele>
        <time>2011-07-31T11:20:33Z</time>
      </trkpt>
      <trkpt lat="48.38351" lon="2.52793">
        <ele>69.208923</ele>
        <time>2011-07-31T11:20:50Z</time>
      </trkpt>
      <trkpt lat="48.38355" lon="2.52813">
        <ele>69.211197</ele>
        <time>2011-07-31T11:21:03Z</time>
      </trkpt>
      <trkpt lat="48.38363" lon="2.52832">
        <ele>69.461784</ele>
        <time>2011-07-31T11:21:14Z</time>
      </trkpt>
      <trkpt lat="48.38363" lon="2.52856">
        <ele>69.271286</ele>
        <time>2011-07-31T11:21:31Z</time>
      </trkpt>
      <trkpt lat="48.38369" lon="2.52876">
        <ele>69.501236</ele>
        <time>2011-07-31T11:21:42Z</time>
      </trkpt>
      <trkpt lat="48.38379" lon="2.52892">
        <ele>69.912003</ele>
        <time>2011-07-31T11:21:50Z</time>
      </trkpt>
      <trkpt lat="48.38381" lon="2.52915">
        <ele>69.716972</ele>
        <time>2011-07-31T11:22:02Z</time>
      </trkpt>
      <trkpt lat="48.3839" lon="2.52934">
        <ele>69.915642</ele>
        <time>2011-07-31T11:22:10Z</time>
      </trkpt>
      <trkpt lat="48.38396" lon="2.52963">
        <ele>70.13739</ele>
        <time>2011-07-31T11:22:27Z</time>
      </trkpt>
      <trkpt lat="48.384" lon="2.52982">
        <ele>70.416687</ele>
        <time>2011-07-31T11:22:44Z</time>
      </trkpt>
      <trkpt lat="48.38406" lon="2.53002">
        <ele>70.793755</ele>
        <time>2011-07-31T11:22:56Z</time>
      </trkpt>
      <trkpt lat="48.38417" lon="2.5302">
        <ele>71.702499</ele>
        <time>2011-07-31T11:23:04Z</time>
      </trkpt>
      <trkpt lat="48.38423" lon="2.53039">
        <ele>72.088753</ele>
        <time>2011-07-31T11:23:15Z</time>
      </trkpt>
      <trkpt lat="48.38426" lon="2.5306">
        <ele>71.977837</ele>
        <time>2011-07-31T11:23:26Z</time>
      </trkpt>
      <trkpt lat="48.38427" lon="2.53092">
        <ele>70.895157</ele>
        <time>2011-07-31T11:23:43Z</time>
      </trkpt>
      <trkpt lat="48.38435" lon="2.53117">
        <ele>70.538895</ele>
        <time>2011-07-31T11:24:00Z</time>
      </trkpt>
      <trkpt lat="48.38445" lon="2.53132">
        <ele>71.967003</ele>
        <time>2011-07-31T11:24:08Z</time>
      </trkpt>
      <trkpt lat="48.38457" lon="2.53144">
        <ele>73.248199</ele>
        <time>2011-07-31T11:24:16Z</time>
      </trkpt>
      <trkpt lat="48.38463" lon="2.53164">
        <ele>72.874702</ele>
        <time>2011-07-31T11:24:26Z</time>
      </trkpt>
      <trkpt lat="48.38471" lon="2.53183">
        <ele>72.12075</ele>
        <time>2011-07-31T11:24:37Z</time>
      </trkpt>
      <trkpt lat="48.38481" lon="2.53198">
        <ele>72.690895</ele>
        <time>2011-07-31T11:24:48Z</time>
      </trkpt>
      <trkpt lat="48.38496" lon="2.53221">
        <ele>74.259087</ele>
        <time>2011-07-31T11:25:05Z</time>
      </trkpt>
      <trkpt lat="48.38507" lon="2.53236">
        <ele>74.581871</ele>
        <time>2011-07-31T11:25:16Z</time>
      </trkpt>
      <trkpt lat="48.38519" lon="2.53251">
        <ele>74.299202</ele>
        <time>2011-07-31T11:25:35Z</time>
      </trkpt>
      <trkpt lat="48.38532" lon="2.5326">
        <ele>74.190002</ele>
        <time>2011-07-31T11:25:46Z</time>
      </trkpt>
      <trkpt lat="48.38546" lon="2.53267">
        <ele>74.629997</ele>
        <time>2011-07-31T11:25:57Z</time>
      </trkpt>
      <trkpt lat="48.38559" lon="2.53276">
        <ele>75.160004</ele>
        <time>2011-07-31T11:26:10Z</time>
      </trkpt>
      <trkpt lat="48.38573" lon="2.53281">
        <ele>75.459503</ele>
        <time>2011-07-31T11:26:21Z</time>
      </trkpt>
      <trkpt lat="48.38586" lon="2.53284">
        <ele>75.683998</ele>
        <time>2011-07-31T11:26:34Z</time>
      </trkpt>
      <trkpt lat="48.38603" lon="2.53288">
        <ele>75.918327</ele>
        <time>2011-07-31T11:26:51Z</time>
      </trkpt>
      <trkpt lat="48.38616" lon="2.53291">
        <ele>75.974098</ele>
        <time>2011-07-31T11:27:09Z</time>
      </trkpt>
      <trkpt lat="48.3863" lon="2.53306">
        <ele>76.177315</ele>
        <time>2011-07-31T11:27:26Z</time>
      </trkpt>
      <trkpt lat="48.38643" lon="2.53315">
        <ele>76.131516</ele>
        <time>2011-07-31T11:27:38Z</time>
      </trkpt>
      <trkpt lat="48.38655" lon="2.53329">
        <ele>76.105003</ele>
        <time>2011-07-31T11:27:49Z</time>
      </trkpt>
      <trkpt lat="48.38667" lon="2.53339">
        <ele>76.49144</ele>
        <time>2011-07-31T11:28:02Z</time>
      </trkpt>
      <trkpt lat="48.38679" lon="2.5335">
        <ele>77.051888</ele>
        <time>2011-07-31T11:28:14Z</time>
      </trkpt>
      <trkpt lat="48.38693" lon="2.53354">
        <ele>77.582558</ele>
        <time>2011-07-31T11:28:24Z</time>
      </trkpt>
      <trkpt lat="48.38706" lon="2.53356">
        <ele>78.058701</ele>
        <time>2011-07-31T11:28:35Z</time>
      </trkpt>
      <trkpt lat="48.38721" lon="2.53345">
        <ele>78.161591</ele>
        <time>2011-07-31T11:28:52Z</time>
      </trkpt>
      <trkpt lat="48.3873" lon="2.53362">
        <ele>79.069923</ele>
        <time>2011-07-31T11:29:10Z</time>
      </trkpt>
      <trkpt lat="48.38744" lon="2.53366">
        <ele>79.728287</ele>
        <time>2011-07-31T11:29:22Z</time>
      </trkpt>
      <trkpt lat="48.38757" lon="2.53374">
        <ele>80.004784</ele>
        <time>2011-07-31T11:29:40Z</time>
      </trkpt>
      <trkpt lat="48.38772" lon="2.53386">
        <ele>80.194542</ele>
        <time>2011-07-31T11:29:57Z</time>
      </trkpt>
      <trkpt lat="48.3879" lon="2.53396">
        <ele>80.595528</ele>
        <time>2011-07-31T11:30:14Z</time>
      </trkpt>
      <trkpt lat="48.38804" lon="2.53399">
        <ele>81.158997</ele>
        <time>2011-07-31T11:30:25Z</time>
      </trkpt>
      <trkpt lat="48.38817" lon="2.53399">
        <ele>81.329323</ele>
        <time>2011-07-31T11:30:37Z</time>
      </trkpt>
      <trkpt lat="48.38831" lon="2.53398">
        <ele>81.363678</ele>
        <time>2011-07-31T11:30:49Z</time>
      </trkpt>
      <trkpt lat="48.38844" lon="2.53404">
        <ele>82.366539</ele>
        <time>2011-07-31T11:30:58Z</time>
      </trkpt>
      <trkpt lat="48.38859" lon="2.53389">
        <ele>81.853127</ele>
        <time>2011-07-31T11:31:15Z</time>
      </trkpt>
      <trkpt lat="48.38862" lon="2.53368">
        <ele>81.180954</ele>
        <time>2011-07-31T11:31:27Z</time>
      </trkpt>
      <trkpt lat="48.38856" lon="2.53348">
        <ele>80.259239</ele>
        <time>2011-07-31T11:31:40Z</time>
      </trkpt>
      <trkpt lat="48.38846" lon="2.53326">
        <ele>79.211464</ele>
        <time>2011-07-31T11:31:57Z</time>
      </trkpt>
      <trkpt lat="48.38837" lon="2.53308">
        <ele>78.477501</ele>
        <time>2011-07-31T11:32:09Z</time>
      </trkpt>
      <trkpt lat="48.38831" lon="2.53288">
        <ele>77.767502</ele>
        <time>2011-07-31T11:32:21Z</time>
      </trkpt>
      <trkpt lat="48.38825" lon="2.53269">
        <ele>77.055</ele>
        <time>2011-07-31T11:33:21Z</time>
      </trkpt>
      <trkpt lat="48.38823" lon="2.53248">
        <ele>76.599327</ele>
        <time>2011-07-31T11:33:34Z</time>
      </trkpt>
      <trkpt lat="48.38837" lon="2.53251">
        <ele>76.993973</ele>
        <time>2011-07-31T11:33:52Z</time>
      </trkpt>
      <trkpt lat="48.38846" lon="2.5327">
        <ele>78.043541</ele>
        <time>2011-07-31T11:34:09Z</time>
      </trkpt>
      <trkpt lat="48.38856" lon="2.53291">
        <ele>79.072334</ele>
        <time>2011-07-31T11:34:26Z</time>
      </trkpt>
      <trkpt lat="48.38868" lon="2.53302">
        <ele>79.72464</ele>
        <time>2011-07-31T11:34:36Z</time>
      </trkpt>
      <trkpt lat="48.3888" lon="2.53312">
        <ele>80.138405</ele>
        <time>2011-07-31T11:34:56Z</time>
      </trkpt>
      <trkpt lat="48.38894" lon="2.5332">
        <ele>82.424362</ele>
        <time>2011-07-31T11:35:04Z</time>
      </trkpt>
      <trkpt lat="48.38906" lon="2.53332">
        <ele>84.902191</ele>
        <time>2011-07-31T11:35:17Z</time>
      </trkpt>
      <trkpt lat="48.38894" lon="2.53321">
        <ele>82.413788</ele>
        <time>2011-07-31T11:36:37Z</time>
      </trkpt>
      <trkpt lat="48.3888" lon="2.53309">
        <ele>80.17868</ele>
        <time>2011-07-31T11:36:54Z</time>
      </trkpt>
      <trkpt lat="48.38876" lon="2.5329">
        <ele>80.165947</ele>
        <time>2011-07-31T11:37:04Z</time>
      </trkpt>
      <trkpt lat="48.3887" lon="2.5327">
        <ele>79.867844</ele>
        <time>2011-07-31T11:37:15Z</time>
      </trkpt>
      <trkpt lat="48.38864" lon="2.53249">
        <ele>79.90583</ele>
        <time>2011-07-31T11:37:28Z</time>
      </trkpt>
      <trkpt lat="48.38855" lon="2.5323">
        <ele>79.692947</ele>
        <time>2011-07-31T11:37:46Z</time>
      </trkpt>
      <trkpt lat="48.38852" lon="2.53209">
        <ele>79.952217</ele>
        <time>2011-07-31T11:37:58Z</time>
      </trkpt>
      <trkpt lat="48.38853" lon="2.53188">
        <ele>80.955811</ele>
        <time>2011-07-31T11:38:11Z</time>
      </trkpt>
      <trkpt lat="48.38858" lon="2.53168">
        <ele>82.479691</ele>
        <time>2011-07-31T11:38:24Z</time>
      </trkpt>
      <trkpt lat="48.38864" lon="2.53146">
        <ele>84.539398</ele>
        <time>2011-07-31T11:38:41Z</time>
      </trkpt>
      <trkpt lat="48.38871" lon="2.53128">
        <ele>86.932762</ele>
        <time>2011-07-31T11:38:58Z</time>
      </trkpt>
      <trkpt lat="48.38883" lon="2.53117">
        <ele>89.691978</ele>
        <time>2011-07-31T11:39:15Z</time>
      </trkpt>
      <trkpt lat="48.38897" lon="2.5311">
        <ele>92.623802</ele>
        <time>2011-07-31T11:39:34Z</time>
      </trkpt>
      <trkpt lat="48.38906" lon="2.53093">
        <ele>91.745598</ele>
        <time>2011-07-31T11:39:51Z</time>
      </trkpt>
      <trkpt lat="48.38919" lon="2.53086">
        <ele>92.542847</ele>
        <time>2011-07-31T11:40:04Z</time>
      </trkpt>
      <trkpt lat="48.38931" lon="2.53096">
        <ele>97.410004</ele>
        <time>2011-07-31T11:40:28Z</time>
      </trkpt>
      <trkpt lat="48.38939" lon="2.53114">
        <ele>103.394997</ele>
        <time>2011-07-31T11:40:48Z</time>
      </trkpt>
      <trkpt lat="48.38933" lon="2.53134">
        <ele>105.5</ele>
        <time>2011-07-31T11:41:28Z</time>
      </trkpt>
      <trkpt lat="48.38939" lon="2.53153">
        <ele>106.040001</ele>
        <time>2011-07-31T11:43:29Z</time>
      </trkpt>
      <trkpt lat="48.38937" lon="2.53174">
        <ele>105.900002</ele>
        <time>2011-07-31T11:44:08Z</time>
      </trkpt>
      <trkpt lat="48.38927" lon="2.53188">
        <ele>104.830826</ele>
        <time>2011-07-31T11:45:02Z</time>
      </trkpt>
      <trkpt lat="48.38925" lon="2.53209">
        <ele>99.837997</ele>
        <time>2011-07-31T11:46:01Z</time>
      </trkpt>
      <trkpt lat="48.38913" lon="2.53219">
        <ele>93.868813</ele>
        <time>2011-07-31T11:47:08Z</time>
      </trkpt>
      <trkpt lat="48.38915" lon="2.5324">
        <ele>89.815628</ele>
        <time>2011-07-31T11:48:11Z</time>
      </trkpt>
      <trkpt lat="48.38928" lon="2.53236">
        <ele>93.991302</ele>
        <time>2011-07-31T11:48:58Z</time>
      </trkpt>
      <trkpt lat="48.38934" lon="2.53255">
        <ele>91.335449</ele>
        <time>2011-07-31T11:50:15Z</time>
      </trkpt>
      <trkpt lat="48.3893" lon="2.53275">
        <ele>89.356598</ele>
        <time>2011-07-31T11:50:46Z</time>
      </trkpt>
      <trkpt lat="48.38919" lon="2.53261">
        <ele>86.842178</ele>
        <time>2011-07-31T11:51:24Z</time>
      </trkpt>
      <trkpt lat="48.38906" lon="2.53252">
        <ele>85.740128</ele>
        <time>2011-07-31T11:51:50Z</time>
      </trkpt>
      <trkpt lat="48.38895" lon="2.53239">
        <ele>85.888313</ele>
        <time>2011-07-31T11:52:17Z</time>
      </trkpt>
      <trkpt lat="48.38882" lon="2.53233">
        <ele>83.574463</ele>
        <time>2011-07-31T11:52:44Z</time>
      </trkpt>
      <trkpt lat="48.38874" lon="2.53251">
        <ele>80.906372</ele>
        <time>2011-07-31T11:53:03Z</time>
      </trkpt>
      <trkpt lat="48.38868" lon="2.5327">
        <ele>79.764275</ele>
        <time>2011-07-31T11:53:24Z</time>
      </trkpt>
      <trkpt lat="48.3887" lon="2.53291">
        <ele>79.825951</ele>
        <time>2011-07-31T11:53:37Z</time>
      </trkpt>
      <trkpt lat="48.38874" lon="2.53311">
        <ele>79.935959</ele>
        <time>2011-07-31T11:53:49Z</time>
      </trkpt>
      <trkpt lat="48.38888" lon="2.5332">
        <ele>81.231972</ele>
        <time>2011-07-31T11:54:23Z</time>
      </trkpt>
      <trkpt lat="48.38903" lon="2.53326">
        <ele>84.193024</ele>
        <time>2011-07-31T11:54:45Z</time>
      </trkpt>
      <trkpt lat="48.38918" lon="2.5333">
        <ele>87.242752</ele>
        <time>2011-07-31T11:55:02Z</time>
      </trkpt>
      <trkpt lat="48.38933" lon="2.5332">
        <ele>91.836472</ele>
        <time>2011-07-31T11:55:19Z</time>
      </trkpt>
      <trkpt lat="48.38946" lon="2.53327">
        <ele>98.814751</ele>
        <time>2011-07-31T11:55:41Z</time>
      </trkpt>
      <trkpt lat="48.38955" lon="2.53311">
        <ele>102.4384</ele>
        <time>2011-07-31T11:56:13Z</time>
      </trkpt>
      <trkpt lat="48.38967" lon="2.53299">
        <ele>107.148003</ele>
        <time>2011-07-31T11:56:30Z</time>
      </trkpt>
      <trkpt lat="48.38979" lon="2.53285">
        <ele>109.219002</ele>
        <time>2011-07-31T11:57:01Z</time>
      </trkpt>
      <trkpt lat="48.38979" lon="2.53264">
        <ele>107.100151</ele>
        <time>2011-07-31T11:57:49Z</time>
      </trkpt>
      <trkpt lat="48.38973" lon="2.53245">
        <ele>106.035187</ele>
        <time>2011-07-31T11:58:21Z</time>
      </trkpt>
      <trkpt lat="48.3897" lon="2.53224">
        <ele>106.625198</ele>
        <time>2011-07-31T11:58:42Z</time>
      </trkpt>
      <trkpt lat="48.38958" lon="2.53212">
        <ele>105.290939</ele>
        <time>2011-07-31T11:59:04Z</time>
      </trkpt>
      <trkpt lat="48.38948" lon="2.53197">
        <ele>105.834427</ele>
        <time>2011-07-31T11:59:30Z</time>
      </trkpt>
      <trkpt lat="48.3894" lon="2.53179">
        <ele>106.160004</ele>
        <time>2011-07-31T12:01:30Z</time>
      </trkpt>
      <trkpt lat="48.38946" lon="2.53159">
        <ele>106.699997</ele>
        <time>2011-07-31T12:01:52Z</time>
      </trkpt>
      <trkpt lat="48.38939" lon="2.53141">
        <ele>106.040001</ele>
        <time>2011-07-31T12:02:31Z</time>
      </trkpt>
      <trkpt lat="48.38942" lon="2.5312">
        <ele>105.449997</ele>
        <time>2011-07-31T12:03:18Z</time>
      </trkpt>
      <trkpt lat="48.38937" lon="2.53101">
        <ele>99.275002</ele>
        <time>2011-07-31T12:03:42Z</time>
      </trkpt>
      <trkpt lat="48.38927" lon="2.53087">
        <ele>94.318901</ele>
        <time>2011-07-31T12:04:04Z</time>
      </trkpt>
      <trkpt lat="48.3891" lon="2.53099">
        <ele>94.010178</ele>
        <time>2011-07-31T12:04:21Z</time>
      </trkpt>
      <trkpt lat="48.38898" lon="2.5311">
        <ele>93.060074</ele>
        <time>2011-07-31T12:04:32Z</time>
      </trkpt>
      <trkpt lat="48.38885" lon="2.53113">
        <ele>89.667747</ele>
        <time>2011-07-31T12:04:45Z</time>
      </trkpt>
      <trkpt lat="48.38873" lon="2.53123">
        <ele>87.468811</ele>
        <time>2011-07-31T12:05:04Z</time>
      </trkpt>
      <trkpt lat="48.38862" lon="2.53138">
        <ele>84.304291</ele>
        <time>2011-07-31T12:05:27Z</time>
      </trkpt>
      <trkpt lat="48.38856" lon="2.53161">
        <ele>82.298439</ele>
        <time>2011-07-31T12:05:44Z</time>
      </trkpt>
      <trkpt lat="48.38849" lon="2.5318">
        <ele>79.990112</ele>
        <time>2011-07-31T12:06:04Z</time>
      </trkpt>
      <trkpt lat="48.38838" lon="2.53197">
        <ele>77.257935</ele>
        <time>2011-07-31T12:06:24Z</time>
      </trkpt>
      <trkpt lat="48.38828" lon="2.53218">
        <ele>76.541672</ele>
        <time>2011-07-31T12:06:41Z</time>
      </trkpt>
      <trkpt lat="48.3882" lon="2.53239">
        <ele>76.415001</ele>
        <time>2011-07-31T12:06:58Z</time>
      </trkpt>
      <trkpt lat="48.38817" lon="2.5326">
        <ele>76.622498</ele>
        <time>2011-07-31T12:07:16Z</time>
      </trkpt>
      <trkpt lat="48.38823" lon="2.53279">
        <ele>77.334999</ele>
        <time>2011-07-31T12:07:28Z</time>
      </trkpt>
      <trkpt lat="48.38831" lon="2.53303">
        <ele>78.209999</ele>
        <time>2011-07-31T12:07:45Z</time>
      </trkpt>
      <trkpt lat="48.3884" lon="2.53323">
        <ele>78.994026</ele>
        <time>2011-07-31T12:08:02Z</time>
      </trkpt>
      <trkpt lat="48.3885" lon="2.53341">
        <ele>79.822853</ele>
        <time>2011-07-31T12:08:19Z</time>
      </trkpt>
      <trkpt lat="48.38856" lon="2.5336">
        <ele>80.690559</ele>
        <time>2011-07-31T12:10:04Z</time>
      </trkpt>
      <trkpt lat="48.38864" lon="2.53383">
        <ele>81.813248</ele>
        <time>2011-07-31T12:10:22Z</time>
      </trkpt>
      <trkpt lat="48.38856" lon="2.53401">
        <ele>82.674629</ele>
        <time>2011-07-31T12:10:42Z</time>
      </trkpt>
      <trkpt lat="48.38843" lon="2.53404">
        <ele>82.285072</ele>
        <time>2011-07-31T12:10:53Z</time>
      </trkpt>
      <trkpt lat="48.38829" lon="2.53402">
        <ele>81.781898</ele>
        <time>2011-07-31T12:11:04Z</time>
      </trkpt>
      <trkpt lat="48.38813" lon="2.53401">
        <ele>81.451973</ele>
        <time>2011-07-31T12:11:21Z</time>
      </trkpt>
      <trkpt lat="48.38799" lon="2.53402">
        <ele>81.507622</ele>
        <time>2011-07-31T12:11:31Z</time>
      </trkpt>
      <trkpt lat="48.38786" lon="2.53402">
        <ele>81.565422</ele>
        <time>2011-07-31T12:11:42Z</time>
      </trkpt>
      <trkpt lat="48.38772" lon="2.53396">
        <ele>80.97303</ele>
        <time>2011-07-31T12:11:53Z</time>
      </trkpt>
      <trkpt lat="48.38757" lon="2.53398">
        <ele>81.5084</ele>
        <time>2011-07-31T12:12:10Z</time>
      </trkpt>
      <trkpt lat="48.38744" lon="2.53393">
        <ele>80.978935</ele>
        <time>2011-07-31T12:12:23Z</time>
      </trkpt>
      <trkpt lat="48.3873" lon="2.53392">
        <ele>80.240273</ele>
        <time>2011-07-31T12:12:41Z</time>
      </trkpt>
      <trkpt lat="48.38735" lon="2.53411">
        <ele>82.611565</ele>
        <time>2011-07-31T12:13:01Z</time>
      </trkpt>
      <trkpt lat="48.38726" lon="2.53395">
        <ele>80.309372</ele>
        <time>2011-07-31T12:13:22Z</time>
      </trkpt>
      <trkpt lat="48.38715" lon="2.53381">
        <ele>79.217064</ele>
        <time>2011-07-31T12:13:35Z</time>
      </trkpt>
      <trkpt lat="48.387" lon="2.53366">
        <ele>78.167847</ele>
        <time>2011-07-31T12:13:52Z</time>
      </trkpt>
      <trkpt lat="48.38687" lon="2.53363">
        <ele>77.610352</ele>
        <time>2011-07-31T12:14:03Z</time>
      </trkpt>
      <trkpt lat="48.38672" lon="2.53353">
        <ele>76.878189</ele>
        <time>2011-07-31T12:14:25Z</time>
      </trkpt>
      <trkpt lat="48.38658" lon="2.53338">
        <ele>76.226158</ele>
        <time>2011-07-31T12:14:42Z</time>
      </trkpt>
      <trkpt lat="48.38646" lon="2.53324">
        <ele>76.235352</ele>
        <time>2011-07-31T12:14:54Z</time>
      </trkpt>
      <trkpt lat="48.38633" lon="2.53315">
        <ele>76.334496</ele>
        <time>2011-07-31T12:15:06Z</time>
      </trkpt>
      <trkpt lat="48.38621" lon="2.53305">
        <ele>76.282837</ele>
        <time>2011-07-31T12:15:19Z</time>
      </trkpt>
      <trkpt lat="48.38607" lon="2.53296">
        <ele>76.169273</ele>
        <time>2011-07-31T12:15:32Z</time>
      </trkpt>
      <trkpt lat="48.38591" lon="2.53293">
        <ele>76.099899</ele>
        <time>2011-07-31T12:15:49Z</time>
      </trkpt>
      <trkpt lat="48.38577" lon="2.53297">
        <ele>76.360451</ele>
        <time>2011-07-31T12:16:00Z</time>
      </trkpt>
      <trkpt lat="48.38564" lon="2.53302">
        <ele>76.669998</ele>
        <time>2011-07-31T12:16:13Z</time>
      </trkpt>
      <trkpt lat="48.38552" lon="2.53314">
        <ele>77.385002</ele>
        <time>2011-07-31T12:16:26Z</time>
      </trkpt>
      <trkpt lat="48.38541" lon="2.53327">
        <ele>78.095001</ele>
        <time>2011-07-31T12:16:38Z</time>
      </trkpt>
      <trkpt lat="48.38529" lon="2.53341">
        <ele>78.495003</ele>
        <time>2011-07-31T12:16:51Z</time>
      </trkpt>
      <trkpt lat="48.38517" lon="2.53351">
        <ele>78.741913</ele>
        <time>2011-07-31T12:17:02Z</time>
      </trkpt>
      <trkpt lat="48.38499" lon="2.53362">
        <ele>78.898735</ele>
        <time>2011-07-31T12:17:19Z</time>
      </trkpt>
      <trkpt lat="48.38486" lon="2.53371">
        <ele>79.142952</ele>
        <time>2011-07-31T12:17:36Z</time>
      </trkpt>
      <trkpt lat="48.38474" lon="2.53384">
        <ele>79.748199</ele>
        <time>2011-07-31T12:17:48Z</time>
      </trkpt>
      <trkpt lat="48.38459" lon="2.53399">
        <ele>80.955063</ele>
        <time>2011-07-31T12:18:05Z</time>
      </trkpt>
      <trkpt lat="48.38447" lon="2.53411">
        <ele>81.961685</ele>
        <time>2011-07-31T12:18:16Z</time>
      </trkpt>
      <trkpt lat="48.38435" lon="2.53423">
        <ele>82.871124</ele>
        <time>2011-07-31T12:18:28Z</time>
      </trkpt>
      <trkpt lat="48.38418" lon="2.53434">
        <ele>82.403923</ele>
        <time>2011-07-31T12:18:45Z</time>
      </trkpt>
      <trkpt lat="48.38406" lon="2.53444">
        <ele>81.976471</ele>
        <time>2011-07-31T12:18:55Z</time>
      </trkpt>
      <trkpt lat="48.38396" lon="2.53458">
        <ele>81.724113</ele>
        <time>2011-07-31T12:19:08Z</time>
      </trkpt>
      <trkpt lat="48.38391" lon="2.53477">
        <ele>82.474998</ele>
        <time>2011-07-31T12:19:20Z</time>
      </trkpt>
      <trkpt lat="48.38388" lon="2.53498">
        <ele>83.459999</ele>
        <time>2011-07-31T12:19:33Z</time>
      </trkpt>
      <trkpt lat="48.38387" lon="2.53519">
        <ele>84.546974</ele>
        <time>2011-07-31T12:19:45Z</time>
      </trkpt>
      <trkpt lat="48.38382" lon="2.53539">
        <ele>84.370003</ele>
        <time>2011-07-31T12:19:58Z</time>
      </trkpt>
      <trkpt lat="48.38379" lon="2.53561">
        <ele>83.949997</ele>
        <time>2011-07-31T12:20:10Z</time>
      </trkpt>
      <trkpt lat="48.38382" lon="2.53588">
        <ele>84.370003</ele>
        <time>2011-07-31T12:20:27Z</time>
      </trkpt>
      <trkpt lat="48.38382" lon="2.53609">
        <ele>84.605003</ele>
        <time>2011-07-31T12:20:39Z</time>
      </trkpt>
      <trkpt lat="48.38382" lon="2.5363">
        <ele>84.916252</ele>
        <time>2011-07-31T12:20:57Z</time>
      </trkpt>
      <trkpt lat="48.38388" lon="2.53651">
        <ele>86.061935</ele>
        <time>2011-07-31T12:21:10Z</time>
      </trkpt>
      <trkpt lat="48.38393" lon="2.53672">
        <ele>87.310326</ele>
        <time>2011-07-31T12:21:21Z</time>
      </trkpt>
      <trkpt lat="48.38396" lon="2.53695">
        <ele>88.703255</ele>
        <time>2011-07-31T12:21:33Z</time>
      </trkpt>
      <trkpt lat="48.384" lon="2.53714">
        <ele>90.390999</ele>
        <time>2011-07-31T12:21:43Z</time>
      </trkpt>
      <trkpt lat="48.38402" lon="2.53738">
        <ele>92.124298</ele>
        <time>2011-07-31T12:22:01Z</time>
      </trkpt>
      <trkpt lat="48.38402" lon="2.53759">
        <ele>93.786377</ele>
        <time>2011-07-31T12:22:32Z</time>
      </trkpt>
      <trkpt lat="48.38393" lon="2.53776">
        <ele>92.533676</ele>
        <time>2011-07-31T12:23:31Z</time>
      </trkpt>
      <trkpt lat="48.38399" lon="2.53756">
        <ele>92.795502</ele>
        <time>2011-07-31T12:24:41Z</time>
      </trkpt>
      <trkpt lat="48.3839" lon="2.53774">
        <ele>91.605049</ele>
        <time>2011-07-31T12:25:58Z</time>
      </trkpt>
      <trkpt lat="48.38384" lon="2.53755">
        <ele>89.124138</ele>
        <time>2011-07-31T12:26:18Z</time>
      </trkpt>
      <trkpt lat="48.38397" lon="2.53758">
        <ele>92.492722</ele>
        <time>2011-07-31T12:26:37Z</time>
      </trkpt>
      <trkpt lat="48.38384" lon="2.53768">
        <ele>89.89814</ele>
        <time>2011-07-31T12:27:04Z</time>
      </trkpt>
      <trkpt lat="48.3837" lon="2.53759">
        <ele>87.306023</ele>
        <time>2011-07-31T12:27:23Z</time>
      </trkpt>
      <trkpt lat="48.38354" lon="2.53749">
        <ele>84.35849</ele>
        <time>2011-07-31T12:27:40Z</time>
      </trkpt>
      <trkpt lat="48.38339" lon="2.53735">
        <ele>81.920235</ele>
        <time>2011-07-31T12:27:57Z</time>
      </trkpt>
      <trkpt lat="48.38327" lon="2.53725">
        <ele>80.574669</ele>
        <time>2011-07-31T12:28:10Z</time>
      </trkpt>
      <trkpt lat="48.38315" lon="2.53713">
        <ele>79.281502</ele>
        <time>2011-07-31T12:28:22Z</time>
      </trkpt>
      <trkpt lat="48.38304" lon="2.53695">
        <ele>78.084778</ele>
        <time>2011-07-31T12:28:39Z</time>
      </trkpt>
      <trkpt lat="48.383" lon="2.53675">
        <ele>77.426636</ele>
        <time>2011-07-31T12:28:52Z</time>
      </trkpt>
      <trkpt lat="48.38291" lon="2.53657">
        <ele>76.671249</ele>
        <time>2011-07-31T12:29:04Z</time>
      </trkpt>
      <trkpt lat="48.38277" lon="2.53647">
        <ele>75.916252</ele>
        <time>2011-07-31T12:29:14Z</time>
      </trkpt>
      <trkpt lat="48.38265" lon="2.53635">
        <ele>75.208748</ele>
        <time>2011-07-31T12:29:27Z</time>
      </trkpt>
      <trkpt lat="48.38252" lon="2.53623">
        <ele>74.442497</ele>
        <time>2011-07-31T12:29:40Z</time>
      </trkpt>
      <trkpt lat="48.38237" lon="2.53608">
        <ele>74.221252</ele>
        <time>2011-07-31T12:29:57Z</time>
      </trkpt>
      <trkpt lat="48.38223" lon="2.53599">
        <ele>74.087502</ele>
        <time>2011-07-31T12:30:08Z</time>
      </trkpt>
      <trkpt lat="48.3821" lon="2.53593">
        <ele>74</ele>
        <time>2011-07-31T12:30:20Z</time>
      </trkpt>
      <trkpt lat="48.38196" lon="2.53584">
        <ele>74.047577</ele>
        <time>2011-07-31T12:30:31Z</time>
      </trkpt>
      <trkpt lat="48.38183" lon="2.53575">
        <ele>73.99115</ele>
        <time>2011-07-31T12:30:43Z</time>
      </trkpt>
      <trkpt lat="48.38171" lon="2.53564">
        <ele>73.709602</ele>
        <time>2011-07-31T12:30:53Z</time>
      </trkpt>
      <trkpt lat="48.38156" lon="2.53551">
        <ele>73.0849</ele>
        <time>2011-07-31T12:31:10Z</time>
      </trkpt>
      <trkpt lat="48.38142" lon="2.53543">
        <ele>72.68985</ele>
        <time>2011-07-31T12:31:20Z</time>
      </trkpt>
      <trkpt lat="48.38136" lon="2.53524">
        <ele>71.981247</ele>
        <time>2011-07-31T12:31:40Z</time>
      </trkpt>
      <trkpt lat="48.38147" lon="2.53504">
        <ele>71.692497</ele>
        <time>2011-07-31T12:31:57Z</time>
      </trkpt>
      <trkpt lat="48.38153" lon="2.53485">
        <ele>71.402496</ele>
        <time>2011-07-31T12:32:09Z</time>
      </trkpt>
      <trkpt lat="48.38166" lon="2.53461">
        <ele>71.050179</ele>
        <time>2011-07-31T12:32:26Z</time>
      </trkpt>
      <trkpt lat="48.38174" lon="2.53435">
        <ele>70.667503</ele>
        <time>2011-07-31T12:32:43Z</time>
      </trkpt>
      <trkpt lat="48.38184" lon="2.53405">
        <ele>70.222504</ele>
        <time>2011-07-31T12:33:00Z</time>
      </trkpt>
      <trkpt lat="48.3819" lon="2.53386">
        <ele>70</ele>
        <time>2011-07-31T12:33:12Z</time>
      </trkpt>
      <trkpt lat="48.38193" lon="2.53363">
        <ele>70</ele>
        <time>2011-07-31T12:33:25Z</time>
      </trkpt>
      <trkpt lat="48.38201" lon="2.53344">
        <ele>70</ele>
        <time>2011-07-31T12:33:33Z</time>
      </trkpt>
      <trkpt lat="48.38202" lon="2.53323">
        <ele>69.998901</ele>
        <time>2011-07-31T12:33:44Z</time>
      </trkpt>
      <trkpt lat="48.38201" lon="2.53302">
        <ele>69.736992</ele>
        <time>2011-07-31T12:33:56Z</time>
      </trkpt>
      <trkpt lat="48.38196" lon="2.53282">
        <ele>69.553001</ele>
        <time>2011-07-31T12:34:09Z</time>
      </trkpt>
      <trkpt lat="48.38193" lon="2.5326">
        <ele>69.365051</ele>
        <time>2011-07-31T12:34:21Z</time>
      </trkpt>
      <trkpt lat="48.38195" lon="2.53239">
        <ele>69.218948</ele>
        <time>2011-07-31T12:34:34Z</time>
      </trkpt>
      <trkpt lat="48.38196" lon="2.53218">
        <ele>69.113159</ele>
        <time>2011-07-31T12:34:45Z</time>
      </trkpt>
      <trkpt lat="48.38202" lon="2.53198">
        <ele>69.019218</ele>
        <time>2011-07-31T12:34:58Z</time>
      </trkpt>
      <trkpt lat="48.38201" lon="2.53174">
        <ele>69</ele>
        <time>2011-07-31T12:35:15Z</time>
      </trkpt>
      <trkpt lat="48.38205" lon="2.53153">
        <ele>69</ele>
        <time>2011-07-31T12:35:27Z</time>
      </trkpt>
      <trkpt lat="48.38211" lon="2.53134">
        <ele>68.939812</ele>
        <time>2011-07-31T12:36:11Z</time>
      </trkpt>
      <trkpt lat="48.3822" lon="2.53117">
        <ele>68.772499</ele>
        <time>2011-07-31T12:36:24Z</time>
      </trkpt>
      <trkpt lat="48.38229" lon="2.53098">
        <ele>68.861252</ele>
        <time>2011-07-31T12:36:42Z</time>
      </trkpt>
      <trkpt lat="48.3824" lon="2.53078">
        <ele>68.921249</ele>
        <time>2011-07-31T12:36:59Z</time>
      </trkpt>
      <trkpt lat="48.38247" lon="2.53059">
        <ele>69.044998</ele>
        <time>2011-07-31T12:37:10Z</time>
      </trkpt>
      <trkpt lat="48.38262" lon="2.5303">
        <ele>69.064308</ele>
        <time>2011-07-31T12:37:30Z</time>
      </trkpt>
      <trkpt lat="48.38268" lon="2.53011">
        <ele>69.082291</ele>
        <time>2011-07-31T12:37:40Z</time>
      </trkpt>
      <trkpt lat="48.38277" lon="2.52991">
        <ele>68.89164</ele>
        <time>2011-07-31T12:37:53Z</time>
      </trkpt>
      <trkpt lat="48.38286" lon="2.52975">
        <ele>68.692497</ele>
        <time>2011-07-31T12:38:06Z</time>
      </trkpt>
      <trkpt lat="48.38291" lon="2.52955">
        <ele>68.78125</ele>
        <time>2011-07-31T12:38:18Z</time>
      </trkpt>
      <trkpt lat="48.38298" lon="2.52937">
        <ele>68.71875</ele>
        <time>2011-07-31T12:38:30Z</time>
      </trkpt>
      <trkpt lat="48.38306" lon="2.52919">
        <ele>68.818588</ele>
        <time>2011-07-31T12:38:40Z</time>
      </trkpt>
      <trkpt lat="48.38312" lon="2.529">
        <ele>68.699997</ele>
        <time>2011-07-31T12:38:51Z</time>
      </trkpt>
      <trkpt lat="48.38318" lon="2.52879">
        <ele>68.565002</ele>
        <time>2011-07-31T12:39:04Z</time>
      </trkpt>
      <trkpt lat="48.38322" lon="2.52859">
        <ele>68.464996</ele>
        <time>2011-07-31T12:39:16Z</time>
      </trkpt>
      <trkpt lat="48.38325" lon="2.52838">
        <ele>68.587502</ele>
        <time>2011-07-31T12:39:33Z</time>
      </trkpt>
      <trkpt lat="48.38325" lon="2.52817">
        <ele>68.89875</ele>
        <time>2011-07-31T12:39:46Z</time>
      </trkpt>
      <trkpt lat="48.38322" lon="2.52796">
        <ele>69.278748</ele>
        <time>2011-07-31T12:39:59Z</time>
      </trkpt>
      <trkpt lat="48.38315" lon="2.52778">
        <ele>69.662376</ele>
        <time>2011-07-31T12:40:11Z</time>
      </trkpt>
      <trkpt lat="48.38301" lon="2.52775">
        <ele>69.942719</ele>
        <time>2011-07-31T12:40:28Z</time>
      </trkpt>
      <trkpt lat="48.38289" lon="2.52756">
        <ele>70.614998</ele>
        <time>2011-07-31T12:40:45Z</time>
      </trkpt>
      <trkpt lat="48.38279" lon="2.52738">
        <ele>71.32</ele>
        <time>2011-07-31T12:41:02Z</time>
      </trkpt>
      <trkpt lat="48.38264" lon="2.52729">
        <ele>72.324997</ele>
        <time>2011-07-31T12:41:15Z</time>
      </trkpt>
      <trkpt lat="48.38259" lon="2.52709">
        <ele>72.553749</ele>
        <time>2011-07-31T12:41:44Z</time>
      </trkpt>
      <trkpt lat="48.38264" lon="2.5269">
        <ele>72.113937</ele>
        <time>2011-07-31T12:43:08Z</time>
      </trkpt>
      <trkpt lat="48.38265" lon="2.52669">
        <ele>71.886398</ele>
        <time>2011-07-31T12:43:28Z</time>
      </trkpt>
      <trkpt lat="48.3827" lon="2.52648">
        <ele>71.637497</ele>
        <time>2011-07-31T12:43:45Z</time>
      </trkpt>
      <trkpt lat="48.38271" lon="2.52627">
        <ele>71.291252</ele>
        <time>2011-07-31T12:44:02Z</time>
      </trkpt>
      <trkpt lat="48.38276" lon="2.52607">
        <ele>70.902504</ele>
        <time>2011-07-31T12:44:14Z</time>
      </trkpt>
      <trkpt lat="48.38277" lon="2.52585">
        <ele>70.53875</ele>
        <time>2011-07-31T12:44:31Z</time>
      </trkpt>
      <trkpt lat="48.38285" lon="2.52565">
        <ele>70.008698</ele>
        <time>2011-07-31T12:44:48Z</time>
      </trkpt>
      <trkpt lat="48.38294" lon="2.52549">
        <ele>69.582748</ele>
        <time>2011-07-31T12:45:01Z</time>
      </trkpt>
      <trkpt lat="48.38291" lon="2.52528">
        <ele>69.252228</ele>
        <time>2011-07-31T12:45:14Z</time>
      </trkpt>
      <trkpt lat="48.38294" lon="2.52505">
        <ele>68.866203</ele>
        <time>2011-07-31T12:45:26Z</time>
      </trkpt>
      <trkpt lat="48.38294" lon="2.52484">
        <ele>68.519157</ele>
        <time>2011-07-31T12:45:36Z</time>
      </trkpt>
      <trkpt lat="48.38292" lon="2.52463">
        <ele>68.146126</ele>
        <time>2011-07-31T12:45:48Z</time>
      </trkpt>
      <trkpt lat="48.38283" lon="2.52444">
        <ele>67.630501</ele>
        <time>2011-07-31T12:46:01Z</time>
      </trkpt>
      <trkpt lat="48.38279" lon="2.52421">
        <ele>67.349937</ele>
        <time>2011-07-31T12:46:18Z</time>
      </trkpt>
      <trkpt lat="48.38276" lon="2.52399">
        <ele>67.145203</ele>
        <time>2011-07-31T12:46:29Z</time>
      </trkpt>
      <trkpt lat="48.38268" lon="2.52379">
        <ele>67.004723</ele>
        <time>2011-07-31T12:46:38Z</time>
      </trkpt>
      <trkpt lat="48.38256" lon="2.52369">
        <ele>67.305199</ele>
        <time>2011-07-31T12:46:48Z</time>
      </trkpt>
      <trkpt lat="48.38246" lon="2.52346">
        <ele>67.772209</ele>
        <time>2011-07-31T12:47:05Z</time>
      </trkpt>
      <trkpt lat="48.38235" lon="2.5233">
        <ele>67.832298</ele>
        <time>2011-07-31T12:47:16Z</time>
      </trkpt>
      <trkpt lat="48.38223" lon="2.52319">
        <ele>67.540947</ele>
        <time>2011-07-31T12:47:27Z</time>
      </trkpt>
      <trkpt lat="48.3821" lon="2.52313">
        <ele>67.019203</ele>
        <time>2011-07-31T12:47:37Z</time>
      </trkpt>
      <trkpt lat="48.38202" lon="2.52295">
        <ele>67.156113</ele>
        <time>2011-07-31T12:47:49Z</time>
      </trkpt>
      <trkpt lat="48.38192" lon="2.5228">
        <ele>67.098724</ele>
        <time>2011-07-31T12:47:59Z</time>
      </trkpt>
      <trkpt lat="48.38183" lon="2.52256">
        <ele>66.855324</ele>
        <time>2011-07-31T12:48:16Z</time>
      </trkpt>
      <trkpt lat="48.38175" lon="2.52237">
        <ele>66.524399</ele>
        <time>2011-07-31T12:48:27Z</time>
      </trkpt>
      <trkpt lat="48.38168" lon="2.52219">
        <ele>66.203812</ele>
        <time>2011-07-31T12:48:40Z</time>
      </trkpt>
      <trkpt lat="48.3816" lon="2.52198">
        <ele>65.936348</ele>
        <time>2011-07-31T12:48:52Z</time>
      </trkpt>
      <trkpt lat="48.38151" lon="2.52181">
        <ele>65.730446</ele>
        <time>2011-07-31T12:49:05Z</time>
      </trkpt>
      <trkpt lat="48.38144" lon="2.52163">
        <ele>65.535004</ele>
        <time>2011-07-31T12:49:15Z</time>
      </trkpt>
      <trkpt lat="48.38132" lon="2.52151">
        <ele>65.269997</ele>
        <time>2011-07-31T12:49:26Z</time>
      </trkpt>
      <trkpt lat="48.38124" lon="2.52133">
        <ele>65.105003</ele>
        <time>2011-07-31T12:49:39Z</time>
      </trkpt>
      <trkpt lat="48.38112" lon="2.5212">
        <ele>65</ele>
        <time>2011-07-31T12:49:51Z</time>
      </trkpt>
      <trkpt lat="48.38102" lon="2.52106">
        <ele>65</ele>
        <time>2011-07-31T12:50:02Z</time>
      </trkpt>
      <trkpt lat="48.38094" lon="2.52088">
        <ele>65</ele>
        <time>2011-07-31T12:50:13Z</time>
      </trkpt>
      <trkpt lat="48.38082" lon="2.52078">
        <ele>65</ele>
        <time>2011-07-31T12:50:23Z</time>
      </trkpt>
      <trkpt lat="48.38072" lon="2.52063">
        <ele>65.07</ele>
        <time>2011-07-31T12:50:36Z</time>
      </trkpt>
      <trkpt lat="48.38063" lon="2.52046">
        <ele>65.269997</ele>
        <time>2011-07-31T12:50:49Z</time>
      </trkpt>
      <trkpt lat="48.38052" lon="2.52031">
        <ele>65.569969</ele>
        <time>2011-07-31T12:50:59Z</time>
      </trkpt>
      <trkpt lat="48.3804" lon="2.52021">
        <ele>65.835838</ele>
        <time>2011-07-31T12:51:09Z</time>
      </trkpt>
      <trkpt lat="48.38034" lon="2.52001">
        <ele>65.959625</ele>
        <time>2011-07-31T12:51:22Z</time>
      </trkpt>
      <trkpt lat="48.38024" lon="2.51986">
        <ele>66.028526</ele>
        <time>2011-07-31T12:51:33Z</time>
      </trkpt>
      <trkpt lat="48.38013" lon="2.51968">
        <ele>65.976875</ele>
        <time>2011-07-31T12:51:46Z</time>
      </trkpt>
      <trkpt lat="48.38" lon="2.51958">
        <ele>65.853188</ele>
        <time>2011-07-31T12:51:56Z</time>
      </trkpt>
      <trkpt lat="48.37991" lon="2.51941">
        <ele>65.596405</ele>
        <time>2011-07-31T12:52:07Z</time>
      </trkpt>
      <trkpt lat="48.37979" lon="2.51928">
        <ele>65.478752</ele>
        <time>2011-07-31T12:52:20Z</time>
      </trkpt>
      <trkpt lat="48.37968" lon="2.51913">
        <ele>65.4925</ele>
        <time>2011-07-31T12:52:31Z</time>
      </trkpt>
      <trkpt lat="48.37959" lon="2.51896">
        <ele>65.501686</ele>
        <time>2011-07-31T12:52:43Z</time>
      </trkpt>
      <trkpt lat="48.37949" lon="2.51883">
        <ele>65.545738</ele>
        <time>2011-07-31T12:52:54Z</time>
      </trkpt>
      <trkpt lat="48.3794" lon="2.51865">
        <ele>65.433426</ele>
        <time>2011-07-31T12:53:06Z</time>
      </trkpt>
      <trkpt lat="48.37932" lon="2.51844">
        <ele>65.618927</ele>
        <time>2011-07-31T12:53:19Z</time>
      </trkpt>
      <trkpt lat="48.3792" lon="2.51833">
        <ele>66.308861</ele>
        <time>2011-07-31T12:53:30Z</time>
      </trkpt>
      <trkpt lat="48.37908" lon="2.5182">
        <ele>66.960884</ele>
        <time>2011-07-31T12:53:42Z</time>
      </trkpt>
      <trkpt lat="48.37901" lon="2.51802">
        <ele>67.178001</ele>
        <time>2011-07-31T12:53:53Z</time>
      </trkpt>
      <trkpt lat="48.37884" lon="2.51781">
        <ele>67.621246</ele>
        <time>2011-07-31T12:54:10Z</time>
      </trkpt>
      <trkpt lat="48.37872" lon="2.51767">
        <ele>67.481247</ele>
        <time>2011-07-31T12:54:23Z</time>
      </trkpt>
      <trkpt lat="48.37862" lon="2.51754">
        <ele>67.516251</ele>
        <time>2011-07-31T12:54:34Z</time>
      </trkpt>
      <trkpt lat="48.37851" lon="2.51739">
        <ele>67.529999</ele>
        <time>2011-07-31T12:54:46Z</time>
      </trkpt>
      <trkpt lat="48.37839" lon="2.51727">
        <ele>67.801247</ele>
        <time>2011-07-31T12:54:56Z</time>
      </trkpt>
      <trkpt lat="48.37829" lon="2.51712">
        <ele>67.770653</ele>
        <time>2011-07-31T12:55:06Z</time>
      </trkpt>
      <trkpt lat="48.37827" lon="2.51691">
        <ele>67.353752</ele>
        <time>2011-07-31T12:55:18Z</time>
      </trkpt>
      <trkpt lat="48.37814" lon="2.51683">
        <ele>67.543747</ele>
        <time>2011-07-31T12:55:28Z</time>
      </trkpt>
      <trkpt lat="48.37803" lon="2.51667">
        <ele>67.587799</ele>
        <time>2011-07-31T12:55:41Z</time>
      </trkpt>
      <trkpt lat="48.37793" lon="2.51652">
        <ele>67.698822</ele>
        <time>2011-07-31T12:55:52Z</time>
      </trkpt>
      <trkpt lat="48.37784" lon="2.51635">
        <ele>67.517227</ele>
        <time>2011-07-31T12:56:03Z</time>
      </trkpt>
      <trkpt lat="48.37776" lon="2.51617">
        <ele>67.237114</ele>
        <time>2011-07-31T12:56:15Z</time>
      </trkpt>
      <trkpt lat="48.37764" lon="2.51605">
        <ele>67.097252</ele>
        <time>2011-07-31T12:56:27Z</time>
      </trkpt>
      <trkpt lat="48.37752" lon="2.51595">
        <ele>67.098854</ele>
        <time>2011-07-31T12:56:38Z</time>
      </trkpt>
      <trkpt lat="48.37746" lon="2.51575">
        <ele>66.61853</ele>
        <time>2011-07-31T12:56:48Z</time>
      </trkpt>
      <trkpt lat="48.37737" lon="2.51557">
        <ele>66.525002</ele>
        <time>2011-07-31T12:57:00Z</time>
      </trkpt>
      <trkpt lat="48.37725" lon="2.51547">
        <ele>66.794998</ele>
        <time>2011-07-31T12:57:13Z</time>
      </trkpt>
      <trkpt lat="48.37718" lon="2.51529">
        <ele>66.959999</ele>
        <time>2011-07-31T12:57:24Z</time>
      </trkpt>
      <trkpt lat="48.37707" lon="2.51514">
        <ele>67.195</ele>
        <time>2011-07-31T12:57:35Z</time>
      </trkpt>
      <trkpt lat="48.37694" lon="2.51506">
        <ele>67.495003</ele>
        <time>2011-07-31T12:57:44Z</time>
      </trkpt>
      <trkpt lat="48.37697" lon="2.51485">
        <ele>67.663696</ele>
        <time>2011-07-31T12:57:53Z</time>
      </trkpt>
      <trkpt lat="48.37686" lon="2.51472">
        <ele>67.935509</ele>
        <time>2011-07-31T12:58:05Z</time>
      </trkpt>
      <trkpt lat="48.37671" lon="2.51464">
        <ele>68.000153</ele>
        <time>2011-07-31T12:58:15Z</time>
      </trkpt>
      <trkpt lat="48.37665" lon="2.51445">
        <ele>68</ele>
        <time>2011-07-31T12:58:26Z</time>
      </trkpt>
      <trkpt lat="48.37658" lon="2.51427">
        <ele>68</ele>
        <time>2011-07-31T12:58:37Z</time>
      </trkpt>
      <trkpt lat="48.3765" lon="2.51409">
        <ele>68</ele>
        <time>2011-07-31T12:58:49Z</time>
      </trkpt>
      <trkpt lat="48.37641" lon="2.51391">
        <ele>68</ele>
        <time>2011-07-31T12:59:01Z</time>
      </trkpt>
      <trkpt lat="48.37629" lon="2.51376">
        <ele>68</ele>
        <time>2011-07-31T12:59:12Z</time>
      </trkpt>
      <trkpt lat="48.37622" lon="2.51358">
        <ele>67.910004</ele>
        <time>2011-07-31T12:59:25Z</time>
      </trkpt>
      <trkpt lat="48.37613" lon="2.51335">
        <ele>67.576248</ele>
        <time>2011-07-31T12:59:42Z</time>
      </trkpt>
      <trkpt lat="48.37602" lon="2.51322">
        <ele>67.377502</ele>
        <time>2011-07-31T12:59:51Z</time>
      </trkpt>
      <trkpt lat="48.37592" lon="2.51308">
        <ele>67.177498</ele>
        <time>2011-07-31T13:00:01Z</time>
      </trkpt>
      <trkpt lat="48.3758" lon="2.51295">
        <ele>67.017502</ele>
        <time>2011-07-31T13:00:11Z</time>
      </trkpt>
      <trkpt lat="48.37568" lon="2.51281">
        <ele>67.083748</ele>
        <time>2011-07-31T13:00:28Z</time>
      </trkpt>
      <trkpt lat="48.37554" lon="2.51268">
        <ele>67.183754</ele>
        <time>2011-07-31T13:00:39Z</time>
      </trkpt>
      <trkpt lat="48.37544" lon="2.51254">
        <ele>67.220001</ele>
        <time>2011-07-31T13:00:52Z</time>
      </trkpt>
      <trkpt lat="48.37535" lon="2.51238">
        <ele>67.185799</ele>
        <time>2011-07-31T13:01:02Z</time>
      </trkpt>
      <trkpt lat="48.37521" lon="2.5123">
        <ele>67.381996</ele>
        <time>2011-07-31T13:01:11Z</time>
      </trkpt>
      <trkpt lat="48.37503" lon="2.51217">
        <ele>67.571251</ele>
        <time>2011-07-31T13:01:28Z</time>
      </trkpt>
      <trkpt lat="48.37493" lon="2.51203">
        <ele>67.60125</ele>
        <time>2011-07-31T13:01:38Z</time>
      </trkpt>
      <trkpt lat="48.37479" lon="2.51197">
        <ele>67.960312</ele>
        <time>2011-07-31T13:01:50Z</time>
      </trkpt>
      <trkpt lat="48.37461" lon="2.51193">
        <ele>68.473801</ele>
        <time>2011-07-31T13:02:07Z</time>
      </trkpt>
      <trkpt lat="48.37449" lon="2.51211">
        <ele>69.3843</ele>
        <time>2011-07-31T13:02:24Z</time>
      </trkpt>
      <trkpt lat="48.37439" lon="2.51197">
        <ele>69.357201</ele>
        <time>2011-07-31T13:02:53Z</time>
      </trkpt>
      <trkpt lat="48.37437" lon="2.51176">
        <ele>68.715538</ele>
        <time>2011-07-31T13:03:10Z</time>
      </trkpt>
      <trkpt lat="48.37422" lon="2.51164">
        <ele>68.67543</ele>
        <time>2011-07-31T13:03:27Z</time>
      </trkpt>
      <trkpt lat="48.37403" lon="2.51154">
        <ele>68.777046</ele>
        <time>2011-07-31T13:03:44Z</time>
      </trkpt>
      <trkpt lat="48.37389" lon="2.51148">
        <ele>68.897499</ele>
        <time>2011-07-31T13:03:57Z</time>
      </trkpt>
      <trkpt lat="48.37376" lon="2.51145">
        <ele>69.110001</ele>
        <time>2011-07-31T13:04:06Z</time>
      </trkpt>
      <trkpt lat="48.37359" lon="2.51136">
        <ele>69.214996</ele>
        <time>2011-07-31T13:04:23Z</time>
      </trkpt>
      <trkpt lat="48.37344" lon="2.51128">
        <ele>69.193909</ele>
        <time>2011-07-31T13:04:31Z</time>
      </trkpt>
      <trkpt lat="48.37331" lon="2.51125">
        <ele>69.237572</ele>
        <time>2011-07-31T13:04:43Z</time>
      </trkpt>
      <trkpt lat="48.37317" lon="2.51122">
        <ele>69.254974</ele>
        <time>2011-07-31T13:04:50Z</time>
      </trkpt>
      <trkpt lat="48.37305" lon="2.51107">
        <ele>69.033127</ele>
        <time>2011-07-31T13:05:07Z</time>
      </trkpt>
      <trkpt lat="48.37305" lon="2.51086">
        <ele>68.270378</ele>
        <time>2011-07-31T13:05:25Z</time>
      </trkpt>
      <trkpt lat="48.37307" lon="2.51065">
        <ele>68.141602</ele>
        <time>2011-07-31T13:05:36Z</time>
      </trkpt>
      <trkpt lat="48.37316" lon="2.51046">
        <ele>67.944099</ele>
        <time>2011-07-31T13:05:49Z</time>
      </trkpt>
      <trkpt lat="48.37325" lon="2.51028">
        <ele>67.729446</ele>
        <time>2011-07-31T13:06:07Z</time>
      </trkpt>
      <trkpt lat="48.37331" lon="2.51008">
        <ele>67.435097</ele>
        <time>2011-07-31T13:06:19Z</time>
      </trkpt>
      <trkpt lat="48.37335" lon="2.50989">
        <ele>67.222954</ele>
        <time>2011-07-31T13:06:30Z</time>
      </trkpt>
      <trkpt lat="48.37341" lon="2.50969">
        <ele>67.059021</ele>
        <time>2011-07-31T13:06:43Z</time>
      </trkpt>
    </trkseg>
  </trk>
</gpx>